sensor_id;sensor_type;location;lat;lon;timestamp;pressure;altitude;pressure_sealevel;temperature;humidity
32452;BME280;45528;52.102;5.242;2023-04-23T00:01:07;100371.0;;;14.02;66.98
32452;BME280;45528;52.102;5.242;2023-04-23T00:04:21;100371.0;;;14.0;67.16
32452;BME280;45528;52.102;5.242;2023-04-23T00:06:01;100376.0;;;13.98;67.16
32452;BME280;45528;52.102;5.242;2023-04-23T00:07:41;100374.0;;;13.92;67.3
32452;BME280;45528;52.102;5.242;2023-04-23T00:09:18;100377.0;;;13.99;67.16
32452;BME280;45528;52.102;5.242;2023-04-23T00:12:34;100373.0;;;13.96;66.94
32452;BME280;45528;52.102;5.242;2023-04-23T00:14:11;100370.0;;;14.02;66.91
32452;BME280;45528;52.102;5.242;2023-04-23T00:15:49;100365.0;;;14.06;66.77
32452;BME280;45528;52.102;5.242;2023-04-23T00:17:25;100363.0;;;13.99;66.91
32452;BME280;45528;52.102;5.242;2023-04-23T00:20:38;100358.0;;;14.01;66.89
32452;BME280;45528;52.102;5.242;2023-04-23T00:22:15;100361.0;;;13.95;66.83
32452;BME280;45528;52.102;5.242;2023-04-23T00:23:51;100363.0;;;13.92;66.94
32452;BME280;45528;52.102;5.242;2023-04-23T00:27:04;100361.0;;;13.95;67.16
32452;BME280;45528;52.102;5.242;2023-04-23T00:28:41;100359.0;;;13.95;67.23
32452;BME280;45528;52.102;5.242;2023-04-23T00:30:17;100351.0;;;13.92;66.98
32452;BME280;45528;52.102;5.242;2023-04-23T00:33:29;100349.0;;;13.88;67.33
32452;BME280;45528;52.102;5.242;2023-04-23T00:35:07;100349.0;;;13.87;67.41
32452;BME280;45528;52.102;5.242;2023-04-23T00:36:43;100341.0;;;13.91;67.27
32452;BME280;45528;52.102;5.242;2023-04-23T00:38:20;100338.0;;;13.95;67.08
32452;BME280;45528;52.102;5.242;2023-04-23T00:41:32;100338.0;;;13.94;66.91
32452;BME280;45528;52.102;5.242;2023-04-23T00:43:09;100337.0;;;13.93;66.91
32452;BME280;45528;52.102;5.242;2023-04-23T00:44:45;100335.0;;;13.89;67.06
32452;BME280;45528;52.102;5.242;2023-04-23T00:48:01;100337.0;;;13.92;66.78
32452;BME280;45528;52.102;5.242;2023-04-23T00:49:38;100339.0;;;13.86;67.05
32452;BME280;45528;52.102;5.242;2023-04-23T00:51:15;100335.0;;;13.85;67.14
32452;BME280;45528;52.102;5.242;2023-04-23T00:54:28;100330.0;;;13.85;67.16
32452;BME280;45528;52.102;5.242;2023-04-23T00:56:05;100326.0;;;13.82;67.14
32452;BME280;45528;52.102;5.242;2023-04-23T00:57:42;100325.0;;;13.82;67.27
32452;BME280;45528;52.102;5.242;2023-04-23T00:59:19;100321.0;;;13.82;67.05
32452;BME280;45528;52.102;5.242;2023-04-23T01:02:34;100316.0;;;13.83;67.13
32452;BME280;45528;52.102;5.242;2023-04-23T01:04:13;100313.0;;;13.86;67.22
32452;BME280;45528;52.102;5.242;2023-04-23T01:05:51;100310.0;;;13.8;67.42
32452;BME280;45528;52.102;5.242;2023-04-23T01:09:06;100307.0;;;13.82;67.38
32452;BME280;45528;52.102;5.242;2023-04-23T01:10:43;100310.0;;;13.88;67.17
32452;BME280;45528;52.102;5.242;2023-04-23T01:12:21;100306.0;;;13.88;67.33
32452;BME280;45528;52.102;5.242;2023-04-23T01:13:58;100305.0;;;13.89;67.25
32452;BME280;45528;52.102;5.242;2023-04-23T01:17:10;100301.0;;;13.93;67.3
32452;BME280;45528;52.102;5.242;2023-04-23T01:18:47;100298.0;;;14.0;67.31
32452;BME280;45528;52.102;5.242;2023-04-23T01:20:23;100301.0;;;13.97;67.31
32452;BME280;45528;52.102;5.242;2023-04-23T01:23:37;100290.0;;;13.99;67.47
32452;BME280;45528;52.102;5.242;2023-04-23T01:25:14;100288.0;;;14.02;67.27
32452;BME280;45528;52.102;5.242;2023-04-23T01:26:50;100288.0;;;14.01;67.49
32452;BME280;45528;52.102;5.242;2023-04-23T01:30:06;100288.0;;;14.03;67.53
32452;BME280;45528;52.102;5.242;2023-04-23T01:31:43;100288.0;;;14.05;67.38
32452;BME280;45528;52.102;5.242;2023-04-23T01:33:19;100283.0;;;14.08;67.3
32452;BME280;45528;52.102;5.242;2023-04-23T01:34:55;100285.0;;;14.09;67.33
32452;BME280;45528;52.102;5.242;2023-04-23T01:38:13;100283.0;;;14.1;67.3
32452;BME280;45528;52.102;5.242;2023-04-23T01:39:49;100285.0;;;14.08;67.33
32452;BME280;45528;52.102;5.242;2023-04-23T01:41:26;100283.0;;;14.12;67.22
32452;BME280;45528;52.102;5.242;2023-04-23T01:44:42;100281.0;;;14.12;67.24
32452;BME280;45528;52.102;5.242;2023-04-23T01:46:19;100281.0;;;14.17;67.3
32452;BME280;45528;52.102;5.242;2023-04-23T01:47:56;100281.0;;;14.17;67.41
32452;BME280;45528;52.102;5.242;2023-04-23T01:49:33;100281.0;;;14.18;67.39
32452;BME280;45528;52.102;5.242;2023-04-23T01:52:46;100277.0;;;14.22;67.44
32452;BME280;45528;52.102;5.242;2023-04-23T01:54:22;100277.0;;;14.28;67.27
32452;BME280;45528;52.102;5.242;2023-04-23T01:55:58;100280.0;;;14.26;67.33
32452;BME280;45528;52.102;5.242;2023-04-23T01:59:13;100274.0;;;14.34;67.13
32452;BME280;45528;52.102;5.242;2023-04-23T02:00:49;100281.0;;;14.36;67.16
32452;BME280;45528;52.102;5.242;2023-04-23T02:02:26;100280.0;;;14.28;67.44
32452;BME280;45528;52.102;5.242;2023-04-23T02:05:40;100276.0;;;14.4;67.19
32452;BME280;45528;52.102;5.242;2023-04-23T02:07:18;100273.0;;;14.39;67.17
32452;BME280;45528;52.102;5.242;2023-04-23T02:08:54;100268.0;;;14.38;67.24
32452;BME280;45528;52.102;5.242;2023-04-23T02:10:30;100265.0;;;14.45;67.08
32452;BME280;45528;52.102;5.242;2023-04-23T02:13:42;100262.0;;;14.53;66.86
32452;BME280;45528;52.102;5.242;2023-04-23T02:15:18;100262.0;;;14.5;66.94
32452;BME280;45528;52.102;5.242;2023-04-23T02:16:54;100259.0;;;14.5;67.08
32452;BME280;45528;52.102;5.242;2023-04-23T02:20:08;100258.0;;;14.55;66.97
32452;BME280;45528;52.102;5.242;2023-04-23T02:21:45;100252.0;;;14.54;66.98
32452;BME280;45528;52.102;5.242;2023-04-23T02:23:21;100250.0;;;14.53;66.85
32452;BME280;45528;52.102;5.242;2023-04-23T02:26:34;100252.0;;;14.52;66.8
32452;BME280;45528;52.102;5.242;2023-04-23T02:28:10;100247.0;;;14.54;66.69
32452;BME280;45528;52.102;5.242;2023-04-23T02:29:48;100245.0;;;14.45;67.05
32452;BME280;45528;52.102;5.242;2023-04-23T02:31:24;100247.0;;;14.53;66.66
32452;BME280;45528;52.102;5.242;2023-04-23T02:34:37;100247.0;;;14.57;66.55
32452;BME280;45528;52.102;5.242;2023-04-23T02:36:13;100247.0;;;14.66;66.24
32452;BME280;45528;52.102;5.242;2023-04-23T02:37:50;100243.0;;;14.57;66.44
32452;BME280;45528;52.102;5.242;2023-04-23T02:41:04;100242.0;;;14.56;66.38
32452;BME280;45528;52.102;5.242;2023-04-23T02:42:40;100244.0;;;14.57;66.37
32452;BME280;45528;52.102;5.242;2023-04-23T02:44:16;100242.0;;;14.56;66.47
32452;BME280;45528;52.102;5.242;2023-04-23T02:47:29;100236.0;;;14.57;66.3
32452;BME280;45528;52.102;5.242;2023-04-23T02:49:07;100243.0;;;14.59;66.33
32452;BME280;45528;52.102;5.242;2023-04-23T02:50:43;100243.0;;;14.6;66.38
32452;BME280;45528;52.102;5.242;2023-04-23T02:52:19;100245.0;;;14.59;66.33
32452;BME280;45528;52.102;5.242;2023-04-23T02:55:33;100245.0;;;14.64;66.31
32452;BME280;45528;52.102;5.242;2023-04-23T02:57:09;100240.0;;;14.57;66.47
32452;BME280;45528;52.102;5.242;2023-04-23T02:58:45;100242.0;;;14.57;66.53
32452;BME280;45528;52.102;5.242;2023-04-23T03:01:59;100244.0;;;14.56;66.66
32452;BME280;45528;52.102;5.242;2023-04-23T03:03:36;100245.0;;;14.6;66.42
32452;BME280;45528;52.102;5.242;2023-04-23T03:05:13;100249.0;;;14.6;66.39
32452;BME280;45528;52.102;5.242;2023-04-23T03:08:25;100248.0;;;14.6;66.33
32452;BME280;45528;52.102;5.242;2023-04-23T03:10:03;100246.0;;;14.64;66.19
32452;BME280;45528;52.102;5.242;2023-04-23T03:11:39;100245.0;;;14.49;66.52
32452;BME280;45528;52.102;5.242;2023-04-23T03:13:15;100255.0;;;14.65;66.41
32452;BME280;45528;52.102;5.242;2023-04-23T03:16:28;100246.0;;;14.74;65.98
32452;BME280;45528;52.102;5.242;2023-04-23T03:18:05;100242.0;;;14.63;65.99
32452;BME280;45528;52.102;5.242;2023-04-23T03:19:41;100242.0;;;14.59;66.27
32452;BME280;45528;52.102;5.242;2023-04-23T03:22:53;100241.0;;;14.64;66.09
32452;BME280;45528;52.102;5.242;2023-04-23T03:24:30;100239.0;;;14.5;66.62
32452;BME280;45528;52.102;5.242;2023-04-23T03:26:05;100239.0;;;14.39;66.84
32452;BME280;45528;52.102;5.242;2023-04-23T03:29:18;100238.0;;;14.55;66.45
32452;BME280;45528;52.102;5.242;2023-04-23T03:30:54;100244.0;;;14.61;66.13
32452;BME280;45528;52.102;5.242;2023-04-23T03:32:30;100241.0;;;14.64;65.91
32452;BME280;45528;52.102;5.242;2023-04-23T03:34:06;100242.0;;;14.63;65.95
32452;BME280;45528;52.102;5.242;2023-04-23T03:37:20;100243.0;;;14.61;65.91
32452;BME280;45528;52.102;5.242;2023-04-23T03:38:56;100241.0;;;14.66;65.69
32452;BME280;45528;52.102;5.242;2023-04-23T03:40:32;100237.0;;;14.65;65.52
32452;BME280;45528;52.102;5.242;2023-04-23T03:43:44;100238.0;;;14.65;65.33
32452;BME280;45528;52.102;5.242;2023-04-23T03:45:20;100231.0;;;14.61;65.41
32452;BME280;45528;52.102;5.242;2023-04-23T03:46:56;100241.0;;;14.49;65.94
32452;BME280;45528;52.102;5.242;2023-04-23T03:50:09;100240.0;;;14.53;65.94
32452;BME280;45528;52.102;5.242;2023-04-23T03:51:46;100237.0;;;14.54;65.72
32452;BME280;45528;52.102;5.242;2023-04-23T03:53:23;100240.0;;;14.47;66.06
32452;BME280;45528;52.102;5.242;2023-04-23T03:54:59;100236.0;;;14.48;65.94
32452;BME280;45528;52.102;5.242;2023-04-23T03:58:12;100233.0;;;14.46;65.78
32452;BME280;45528;52.102;5.242;2023-04-23T03:59:48;100227.0;;;14.44;65.85
32452;BME280;45528;52.102;5.242;2023-04-23T04:01:24;100221.0;;;14.4;65.99
32452;BME280;45528;52.102;5.242;2023-04-23T04:04:37;100226.0;;;14.42;65.94
32452;BME280;45528;52.102;5.242;2023-04-23T04:06:13;100226.0;;;14.43;65.99
32452;BME280;45528;52.102;5.242;2023-04-23T04:07:50;100227.0;;;14.43;66.0
32452;BME280;45528;52.102;5.242;2023-04-23T04:11:03;100225.0;;;14.42;66.1
32452;BME280;45528;52.102;5.242;2023-04-23T04:12:39;100225.0;;;14.41;66.03
32452;BME280;45528;52.102;5.242;2023-04-23T04:14:15;100220.0;;;14.4;66.16
32452;BME280;45528;52.102;5.242;2023-04-23T04:17:28;100223.0;;;14.44;65.86
32452;BME280;45528;52.102;5.242;2023-04-23T04:19:05;100221.0;;;14.38;65.87
32452;BME280;45528;52.102;5.242;2023-04-23T04:20:42;100222.0;;;14.41;65.69
32452;BME280;45528;52.102;5.242;2023-04-23T04:22:19;100222.0;;;14.45;65.52
32452;BME280;45528;52.102;5.242;2023-04-23T04:25:32;100228.0;;;14.35;66.0
32452;BME280;45528;52.102;5.242;2023-04-23T04:27:08;100223.0;;;14.38;65.84
32452;BME280;45528;52.102;5.242;2023-04-23T04:28:44;100226.0;;;14.46;65.66
32452;BME280;45528;52.102;5.242;2023-04-23T04:31:57;100223.0;;;14.39;65.8
32452;BME280;45528;52.102;5.242;2023-04-23T04:33:33;100225.0;;;14.36;65.91
32452;BME280;45528;52.102;5.242;2023-04-23T04:35:09;100231.0;;;14.35;65.91
32452;BME280;45528;52.102;5.242;2023-04-23T04:38:22;100228.0;;;14.31;66.17
32452;BME280;45528;52.102;5.242;2023-04-23T04:39:58;100226.0;;;14.33;66.19
32452;BME280;45528;52.102;5.242;2023-04-23T04:41:35;100230.0;;;14.28;66.27
32452;BME280;45528;52.102;5.242;2023-04-23T04:43:11;100232.0;;;14.34;66.1
32452;BME280;45528;52.102;5.242;2023-04-23T04:46:24;100234.0;;;14.37;65.97
32452;BME280;45528;52.102;5.242;2023-04-23T04:48:00;100232.0;;;14.37;65.88
32452;BME280;45528;52.102;5.242;2023-04-23T04:49:37;100234.0;;;14.39;65.83
32452;BME280;45528;52.102;5.242;2023-04-23T04:52:50;100237.0;;;14.3;65.95
32452;BME280;45528;52.102;5.242;2023-04-23T04:54:26;100230.0;;;14.29;66.14
32452;BME280;45528;52.102;5.242;2023-04-23T04:56:03;100230.0;;;14.3;65.97
32452;BME280;45528;52.102;5.242;2023-04-23T04:59:17;100230.0;;;14.31;65.98
32452;BME280;45528;52.102;5.242;2023-04-23T05:00:53;100230.0;;;14.3;65.95
32452;BME280;45528;52.102;5.242;2023-04-23T05:02:30;100233.0;;;14.28;66.09
32452;BME280;45528;52.102;5.242;2023-04-23T05:04:06;100224.0;;;14.37;65.81
32452;BME280;45528;52.102;5.242;2023-04-23T05:07:19;100226.0;;;14.31;66.05
32452;BME280;45528;52.102;5.242;2023-04-23T05:08:56;100226.0;;;14.25;66.16
32452;BME280;45528;52.102;5.242;2023-04-23T05:10:32;100223.0;;;14.22;66.33
32452;BME280;45528;52.102;5.242;2023-04-23T05:13:44;100225.0;;;14.21;65.95
32452;BME280;45528;52.102;5.242;2023-04-23T05:15:21;100227.0;;;14.33;66.08
32452;BME280;45528;52.102;5.242;2023-04-23T05:16:57;100227.0;;;14.31;66.06
32452;BME280;45528;52.102;5.242;2023-04-23T05:20:11;100228.0;;;14.36;66.11
32452;BME280;45528;52.102;5.242;2023-04-23T05:21:47;100228.0;;;14.38;66.09
32452;BME280;45528;52.102;5.242;2023-04-23T05:23:23;100227.0;;;14.45;65.89
32452;BME280;45528;52.102;5.242;2023-04-23T05:24:59;100225.0;;;14.49;65.72
32452;BME280;45528;52.102;5.242;2023-04-23T05:28:12;100220.0;;;14.55;65.67
32452;BME280;45528;52.102;5.242;2023-04-23T05:29:48;100223.0;;;14.51;65.83
32452;BME280;45528;52.102;5.242;2023-04-23T05:31:24;100233.0;;;14.46;66.19
32452;BME280;45528;52.102;5.242;2023-04-23T05:34:38;100235.0;;;14.49;66.2
32452;BME280;45528;52.102;5.242;2023-04-23T05:36:14;100231.0;;;14.65;66.02
32452;BME280;45528;52.102;5.242;2023-04-23T05:37:50;100232.0;;;14.68;65.8
32452;BME280;45528;52.102;5.242;2023-04-23T05:41:03;100241.0;;;14.67;66.05
32452;BME280;45528;52.102;5.242;2023-04-23T05:42:39;100237.0;;;14.66;66.16
32452;BME280;45528;52.102;5.242;2023-04-23T05:44:15;100239.0;;;14.83;65.66
32452;BME280;45528;52.102;5.242;2023-04-23T05:47:27;100236.0;;;14.94;65.59
32452;BME280;45528;52.102;5.242;2023-04-23T05:49:04;100235.0;;;14.83;65.81
32452;BME280;45528;52.102;5.242;2023-04-23T05:50:41;100230.0;;;14.87;65.95
32452;BME280;45528;52.102;5.242;2023-04-23T05:52:17;100230.0;;;15.02;65.66
32452;BME280;45528;52.102;5.242;2023-04-23T05:55:30;100230.0;;;15.12;65.35
32452;BME280;45528;52.102;5.242;2023-04-23T05:57:06;100217.0;;;15.15;65.33
32452;BME280;45528;52.102;5.242;2023-04-23T05:58:42;100219.0;;;15.19;65.09
32452;BME280;45528;52.102;5.242;2023-04-23T06:01:54;100216.0;;;15.26;65.19
32452;BME280;45528;52.102;5.242;2023-04-23T06:03:31;100219.0;;;15.31;65.1
32452;BME280;45528;52.102;5.242;2023-04-23T06:05:08;100217.0;;;15.36;65.16
32452;BME280;45528;52.102;5.242;2023-04-23T06:08:20;100216.0;;;15.49;64.86
32452;BME280;45528;52.102;5.242;2023-04-23T06:09:56;100218.0;;;15.59;64.41
32452;BME280;45528;52.102;5.242;2023-04-23T06:11:33;100218.0;;;15.74;64.47
32452;BME280;45528;52.102;5.242;2023-04-23T06:13:08;100212.0;;;15.76;64.13
32452;BME280;45528;52.102;5.242;2023-04-23T06:16:22;100214.0;;;15.88;64.16
32452;BME280;45528;52.102;5.242;2023-04-23T06:17:59;100218.0;;;15.85;64.33
32452;BME280;45528;52.102;5.242;2023-04-23T06:19:35;100215.0;;;15.97;64.14
32452;BME280;45528;52.102;5.242;2023-04-23T06:22:48;100213.0;;;15.91;64.44
32452;BME280;45528;52.102;5.242;2023-04-23T06:24:25;100210.0;;;15.89;64.89
32452;BME280;45528;52.102;5.242;2023-04-23T06:26:02;100214.0;;;15.84;65.11
32452;BME280;45528;52.102;5.242;2023-04-23T06:29:14;100216.0;;;16.09;64.56
32452;BME280;45528;52.102;5.242;2023-04-23T06:30:50;100214.0;;;16.15;64.58
32452;BME280;45528;52.102;5.242;2023-04-23T06:32:27;100209.0;;;16.25;64.23
32452;BME280;45528;52.102;5.242;2023-04-23T06:34:03;100205.0;;;16.45;63.78
32452;BME280;45528;52.102;5.242;2023-04-23T06:37:16;100199.0;;;16.64;63.11
32452;BME280;45528;52.102;5.242;2023-04-23T06:38:52;100198.0;;;16.48;63.55
32452;BME280;45528;52.102;5.242;2023-04-23T06:40:28;100194.0;;;16.64;63.34
32452;BME280;45528;52.102;5.242;2023-04-23T06:43:41;100197.0;;;16.63;63.45
32452;BME280;45528;52.102;5.242;2023-04-23T06:45:18;100197.0;;;16.71;63.52
32452;BME280;45528;52.102;5.242;2023-04-23T06:46:54;100195.0;;;16.97;62.62
32452;BME280;45528;52.102;5.242;2023-04-23T06:50:08;100196.0;;;16.91;63.22
32452;BME280;45528;52.102;5.242;2023-04-23T06:51:45;100187.0;;;17.09;62.78
32452;BME280;45528;52.102;5.242;2023-04-23T06:53:21;100192.0;;;17.25;62.4
32452;BME280;45528;52.102;5.242;2023-04-23T06:54:57;100187.0;;;17.45;62.43
32452;BME280;45528;52.102;5.242;2023-04-23T06:58:09;100186.0;;;17.59;61.72
32452;BME280;45528;52.102;5.242;2023-04-23T06:59:46;100185.0;;;17.66;61.44
32452;BME280;45528;52.102;5.242;2023-04-23T07:01:23;100187.0;;;17.66;61.14
32452;BME280;45528;52.102;5.242;2023-04-23T07:04:35;100190.0;;;17.75;61.01
32452;BME280;45528;52.102;5.242;2023-04-23T07:06:11;100190.0;;;17.63;61.58
32452;BME280;45528;52.102;5.242;2023-04-23T07:07:48;100191.0;;;17.43;62.48
32452;BME280;45528;52.102;5.242;2023-04-23T07:11:01;100192.0;;;17.73;61.77
32452;BME280;45528;52.102;5.242;2023-04-23T07:12:38;100196.0;;;18.25;60.12
32452;BME280;45528;52.102;5.242;2023-04-23T07:14:15;100192.0;;;18.04;60.33
32452;BME280;45528;52.102;5.242;2023-04-23T07:15:51;100189.0;;;17.97;60.48
32452;BME280;45528;52.102;5.242;2023-04-23T07:19:03;100190.0;;;18.16;60.27
32452;BME280;45528;52.102;5.242;2023-04-23T07:20:39;100193.0;;;18.23;60.27
32452;BME280;45528;52.102;5.242;2023-04-23T07:22:16;100181.0;;;18.57;59.79
32452;BME280;45528;52.102;5.242;2023-04-23T07:25:31;100183.0;;;18.61;59.42
32452;BME280;45528;52.102;5.242;2023-04-23T07:27:07;100187.0;;;18.93;58.17
32452;BME280;45528;52.102;5.242;2023-04-23T07:28:45;100182.0;;;18.88;58.22
32452;BME280;45528;52.102;5.242;2023-04-23T07:32:00;100181.0;;;18.93;58.47
32452;BME280;45528;52.102;5.242;2023-04-23T07:33:36;100175.0;;;19.06;58.23
32452;BME280;45528;52.102;5.242;2023-04-23T07:35:13;100177.0;;;19.09;58.25
32452;BME280;45528;52.102;5.242;2023-04-23T07:36:50;100177.0;;;19.25;57.76
32452;BME280;45528;52.102;5.242;2023-04-23T07:40:04;100172.0;;;19.39;57.74
32452;BME280;45528;52.102;5.242;2023-04-23T07:41:41;100173.0;;;19.18;58.29
32452;BME280;45528;52.102;5.242;2023-04-23T07:43:17;100183.0;;;19.41;57.64
32452;BME280;45528;52.102;5.242;2023-04-23T07:46:29;100174.0;;;19.46;56.72
32452;BME280;45528;52.102;5.242;2023-04-23T07:48:06;100174.0;;;19.77;56.47
32452;BME280;45528;52.102;5.242;2023-04-23T07:49:43;100177.0;;;19.82;56.15
32452;BME280;45528;52.102;5.242;2023-04-23T07:52:57;100177.0;;;19.68;55.7
32452;BME280;45528;52.102;5.242;2023-04-23T07:54:33;100174.0;;;19.7;56.23
32452;BME280;45528;52.102;5.242;2023-04-23T07:56:09;100173.0;;;19.75;56.88
32452;BME280;45528;52.102;5.242;2023-04-23T07:57:46;100170.0;;;19.88;55.85
32452;BME280;45528;52.102;5.242;2023-04-23T08:01:00;100178.0;;;19.96;55.94
32452;BME280;45528;52.102;5.242;2023-04-23T08:02:37;100170.0;;;19.89;55.66
32452;BME280;45528;52.102;5.242;2023-04-23T08:04:14;100175.0;;;20.16;55.12
32452;BME280;45528;52.102;5.242;2023-04-23T08:07:27;100167.0;;;20.32;55.5
32452;BME280;45528;52.102;5.242;2023-04-23T08:09:03;100163.0;;;20.22;55.03
32452;BME280;45528;52.102;5.242;2023-04-23T08:10:39;100162.0;;;20.34;54.71
32452;BME280;45528;52.102;5.242;2023-04-23T08:13:54;100160.0;;;20.2;54.56
32452;BME280;45528;52.102;5.242;2023-04-23T08:15:30;100160.0;;;20.36;54.75
32452;BME280;45528;52.102;5.242;2023-04-23T08:17:07;100158.0;;;20.46;54.61
32452;BME280;45528;52.102;5.242;2023-04-23T08:18:44;100163.0;;;20.81;53.68
32452;BME280;45528;52.102;5.242;2023-04-23T08:21:56;100168.0;;;21.01;53.62
32452;BME280;45528;52.102;5.242;2023-04-23T08:23:32;100160.0;;;20.85;53.82
32452;BME280;45528;52.102;5.242;2023-04-23T08:25:10;100162.0;;;20.55;53.24
32452;BME280;45528;52.102;5.242;2023-04-23T08:28:22;100160.0;;;21.0;53.15
32452;BME280;45528;52.102;5.242;2023-04-23T08:30:00;100159.0;;;20.96;53.05
32452;BME280;45528;52.102;5.242;2023-04-23T08:31:36;100163.0;;;21.16;51.92
32452;BME280;45528;52.102;5.242;2023-04-23T08:34:49;100157.0;;;20.83;52.11
32452;BME280;45528;52.102;5.242;2023-04-23T08:36:25;100155.0;;;21.24;52.33
32452;BME280;45528;52.102;5.242;2023-04-23T08:38:01;100160.0;;;21.36;51.51
32452;BME280;45528;52.102;5.242;2023-04-23T08:39:39;100151.0;;;21.33;51.72
32452;BME280;45528;52.102;5.242;2023-04-23T08:43:01;100148.0;;;21.43;51.49
32452;BME280;45528;52.102;5.242;2023-04-23T08:44:40;100155.0;;;21.49;51.73
32452;BME280;45528;52.102;5.242;2023-04-23T08:46:18;100155.0;;;21.33;50.95
32452;BME280;45528;52.102;5.242;2023-04-23T08:49:35;100155.0;;;21.2;51.6
32452;BME280;45528;52.102;5.242;2023-04-23T08:51:17;100151.0;;;21.32;51.65
32452;BME280;45528;52.102;5.242;2023-04-23T08:52:56;100149.0;;;21.4;51.31
32452;BME280;45528;52.102;5.242;2023-04-23T08:54:33;100155.0;;;21.25;51.0
32452;BME280;45528;52.102;5.242;2023-04-23T08:57:49;100153.0;;;21.6;51.08
32452;BME280;45528;52.102;5.242;2023-04-23T08:59:29;100152.0;;;21.55;51.4
32452;BME280;45528;52.102;5.242;2023-04-23T09:01:06;100153.0;;;21.54;51.34
32452;BME280;45528;52.102;5.242;2023-04-23T09:02:44;100159.0;;;21.8;50.88
32452;BME280;45528;52.102;5.242;2023-04-23T09:05:57;100158.0;;;21.94;50.18
32452;BME280;45528;52.102;5.242;2023-04-23T09:07:35;100155.0;;;21.77;49.88
32452;BME280;45528;52.102;5.242;2023-04-23T09:09:11;100153.0;;;21.74;50.01
32452;BME280;45528;52.102;5.242;2023-04-23T09:12:32;100161.0;;;22.08;49.44
32452;BME280;45528;52.102;5.242;2023-04-23T09:14:11;100156.0;;;21.82;49.12
32452;BME280;45528;52.102;5.242;2023-04-23T09:15:48;100153.0;;;22.0;48.67
32452;BME280;45528;52.102;5.242;2023-04-23T09:17:27;100152.0;;;22.02;49.25
32452;BME280;45528;52.102;5.242;2023-04-23T09:20:43;100149.0;;;21.64;48.44
32452;BME280;45528;52.102;5.242;2023-04-23T09:22:37;100147.0;;;21.62;49.28
32452;BME280;45528;52.102;5.242;2023-04-23T09:24:27;100148.0;;;21.54;48.63
32452;BME280;45528;52.102;5.242;2023-04-23T09:26:05;100151.0;;;21.74;48.91
32452;BME280;45528;52.102;5.242;2023-04-23T09:29:20;100145.0;;;21.93;49.16
32452;BME280;45528;52.102;5.242;2023-04-23T09:30:58;100144.0;;;21.73;48.86
32452;BME280;45528;52.102;5.242;2023-04-23T09:32:34;100143.0;;;21.66;49.06
32452;BME280;45528;52.102;5.242;2023-04-23T09:34:14;100141.0;;;21.78;48.35
32452;BME280;45528;52.102;5.242;2023-04-23T09:37:27;100138.0;;;22.02;47.79
32452;BME280;45528;52.102;5.242;2023-04-23T09:39:10;100136.0;;;22.15;48.0
32452;BME280;45528;52.102;5.242;2023-04-23T09:40:49;100135.0;;;21.96;48.03
32452;BME280;45528;52.102;5.242;2023-04-23T09:42:26;100130.0;;;22.33;48.25
32452;BME280;45528;52.102;5.242;2023-04-23T09:45:46;100130.0;;;22.49;48.1
32452;BME280;45528;52.102;5.242;2023-04-23T09:47:23;100136.0;;;22.27;47.69
32452;BME280;45528;52.102;5.242;2023-04-23T09:49:01;100132.0;;;22.32;47.28
32452;BME280;45528;52.102;5.242;2023-04-23T09:52:16;100134.0;;;22.48;47.11
32452;BME280;45528;52.102;5.242;2023-04-23T09:53:53;100131.0;;;22.45;46.44
32452;BME280;45528;52.102;5.242;2023-04-23T09:55:30;100131.0;;;22.33;46.33
32452;BME280;45528;52.102;5.242;2023-04-23T09:57:07;100124.0;;;22.65;46.3
32452;BME280;45528;52.102;5.242;2023-04-23T10:00:21;100130.0;;;22.37;46.68
32452;BME280;45528;52.102;5.242;2023-04-23T10:02:01;100131.0;;;22.47;45.53
32452;BME280;45528;52.102;5.242;2023-04-23T10:03:41;100127.0;;;22.63;45.95
32452;BME280;45528;52.102;5.242;2023-04-23T10:06:56;100125.0;;;22.8;46.05
32452;BME280;45528;52.102;5.242;2023-04-23T10:08:33;100123.0;;;23.25;45.03
32452;BME280;45528;52.102;5.242;2023-04-23T10:10:11;100125.0;;;23.47;44.7
32452;BME280;45528;52.102;5.242;2023-04-23T10:11:48;100123.0;;;23.5;44.75
32452;BME280;45528;52.102;5.242;2023-04-23T10:15:03;100120.0;;;23.04;45.2
32452;BME280;45528;52.102;5.242;2023-04-23T10:16:41;100123.0;;;22.93;44.52
32452;BME280;45528;52.102;5.242;2023-04-23T10:18:19;100120.0;;;23.23;43.31
32452;BME280;45528;52.102;5.242;2023-04-23T10:21:37;100124.0;;;23.09;43.5
32452;BME280;45528;52.102;5.242;2023-04-23T10:23:14;100123.0;;;22.89;43.83
32452;BME280;45528;52.102;5.242;2023-04-23T10:24:56;100127.0;;;22.77;44.57
32452;BME280;45528;52.102;5.242;2023-04-23T10:26:36;100115.0;;;22.78;44.04
32452;BME280;45528;52.102;5.242;2023-04-23T10:29:56;100117.0;;;22.95;42.55
32452;BME280;45528;52.102;5.242;2023-04-23T10:31:32;100107.0;;;22.63;42.69
32452;BME280;45528;52.102;5.242;2023-04-23T10:33:11;100105.0;;;23.01;42.83
32452;BME280;45528;52.102;5.242;2023-04-23T10:34:47;100110.0;;;23.04;42.64
32452;BME280;45528;52.102;5.242;2023-04-23T10:38:02;100102.0;;;23.25;42.48
32452;BME280;45528;52.102;5.242;2023-04-23T10:39:42;100103.0;;;23.4;42.39
32452;BME280;45528;52.102;5.242;2023-04-23T10:41:21;100095.0;;;23.14;43.11
32452;BME280;45528;52.102;5.242;2023-04-23T10:43:02;100095.0;;;23.27;41.99
32452;BME280;45528;52.102;5.242;2023-04-23T10:46:33;100096.0;;;23.46;42.02
32452;BME280;45528;52.102;5.242;2023-04-23T10:48:10;100088.0;;;23.24;42.28
32452;BME280;45528;52.102;5.242;2023-04-23T10:49:47;100099.0;;;23.47;42.94
32452;BME280;45528;52.102;5.242;2023-04-23T10:51:32;100085.0;;;23.52;42.69
32452;BME280;45528;52.102;5.242;2023-04-23T10:54:57;100084.0;;;23.69;42.53
32452;BME280;45528;52.102;5.242;2023-04-23T10:56:33;100085.0;;;23.31;41.76
32452;BME280;45528;52.102;5.242;2023-04-23T10:58:09;100074.0;;;23.23;42.12
32452;BME280;45528;52.102;5.242;2023-04-23T10:59:51;100080.0;;;23.37;40.39
32452;BME280;45528;52.102;5.242;2023-04-23T11:03:04;100075.0;;;23.55;41.75
32452;BME280;45528;52.102;5.242;2023-04-23T11:04:41;100078.0;;;23.6;40.98
32452;BME280;45528;52.102;5.242;2023-04-23T11:06:49;100067.0;;;23.6;40.14